Dades meteomassalio
Diari Summary for Agost 1, 2017 Units:  English    Metric   Both
« Previous Day
Next Day »
Diari Semanal Mensual Anual Personalitzat
  Maxima: Minima: Mijana:
Temperatura: TemperatureC °F 20.4 °F 25.8 °F
Rosada: DewpointC °F 15.6 °F 17.1 °F
Humitat: Humidity % 37 % 59 %
Velocitat del vent: WindSpeedKMH mph 0.0 mph 5.6 mph
Racha vent: WindSpeedGustKMH mph - -
Vent:- - South
Pressio: PressurehPa in 1007.0 in -
Pluja: 0.0 in    
Historical Graphs
 
 
Tabular Data for Agost 1, 2017
Time Temperature Dew Point Pressure Wind Wind Speed Wind Gust Humidity Rainfall Rate (Hourly) solar Conditions
TemperatureC °F DewpointC °F PressurehPa in Calm     Humidity % HourlyPrecipMM in SolarRadiationWatts/m^2 W/m2 Conditions
00:04 27.0 °F 16.0 °F 1007.0 in Calm     51 % 0.0 in 0.0 W/m2 CLR
00:09 26.8 °F 16.2 °F 1007.0 in Calm     52 % 0.0 in 0.0 W/m2 CLR
00:14 26.7 °F 16.1 °F 1007.0 in Calm     52 % 0.0 in 0.0 W/m2 CLR
00:20 26.6 °F 15.9 °F 1007.0 in Calm     52 % 0.0 in 0.0 W/m2 CLR
00:25 26.4 °F 16.1 °F 1007.0 in Calm     53 % 0.0 in 0.0 W/m2 CLR
00:30 26.6 °F 16.2 °F 1007.0 in ENE 5.6 mph   53 % 0.0 in 0.0 W/m2 CLR
00:35 26.7 °F 16.3 °F 1007.0 in Calm     53 % 0.0 in 0.0 W/m2 CLR
00:40 26.7 °F 16.3 °F 1007.3 in Calm     53 % 0.0 in 0.0 W/m2 CLR
00:45 26.6 °F 16.8 °F 1007.3 in Calm     55 % 0.0 in 0.0 W/m2 CLR
00:50 26.3 °F 17.1 °F 1007.3 in Calm     57 % 0.0 in 0.0 W/m2 CLR
00:55 26.0 °F 17.1 °F 1007.3 in North 5.6 mph 5.6 mph 58 % 0.0 in 0.0 W/m2 CLR
01:00 25.7 °F 17.6 °F 1007.7 in NNW 13.0 mph 13.0 mph 61 % 0.0 in 0.0 W/m2 CLR
01:05 25.4 °F 17.1 °F 1008.0 in NNW 16.7 mph 16.7 mph 60 % 0.0 in 0.0 W/m2 CLR
01:10 25.3 °F 17.5 °F 1008.0 in Calm     62 % 0.0 in 0.0 W/m2 CLR
01:15 25.3 °F 18.2 °F 1008.0 in NNW 9.3 mph 10.1 mph 65 % 0.0 in 0.0 W/m2 CLR
01:20 25.1 °F 18.1 °F 1008.4 in NW 11.1 mph 11.1 mph 65 % 0.0 in 0.0 W/m2 CLR
01:25 25.1 °F 18.0 °F 1007.7 in Calm     65 % 0.0 in 0.0 W/m2 CLR
01:30 25.1 °F 18.3 °F 1007.7 in Calm     66 % 0.0 in 0.0 W/m2 CLR
01:35 24.9 °F 18.1 °F 1008.0 in NNE 11.1 mph 11.1 mph 66 % 0.0 in 0.0 W/m2 CLR
01:40 24.7 °F 18.7 °F 1008.0 in NE 14.8 mph 14.8 mph 69 % 0.0 in 0.0 W/m2 CLR
01:45 24.6 °F 19.0 °F 1008.4 in Calm     71 % 0.0 in 0.0 W/m2 CLR
01:50 24.6 °F 19.2 °F 1008.4 in Calm     72 % 0.0 in 0.0 W/m2 CLR
01:55 24.5 °F 19.1 °F 1008.4 in Calm     72 % 0.0 in 0.0 W/m2 CLR
02:00 24.4 °F 19.0 °F 1008.4 in WSW 5.6 mph 5.6 mph 72 % 0.0 in 0.0 W/m2 CLR
02:04 24.5 °F 18.9 °F 1008.4 in NW 7.4 mph 7.4 mph 71 % 0.0 in 0.0 W/m2 CLR
02:05 24.5 °F 18.9 °F 1008.4 in WNW 5.6 mph 5.6 mph 71 % 0.0 in 0.0 W/m2 CLR
02:10 24.9 °F 19.1 °F 1008.7 in West 11.1 mph 11.1 mph 70 % 0.0 in 0.0 W/m2 CLR
02:15 25.4 °F 19.1 °F 1009.0 in Calm     68 % 0.0 in 0.0 W/m2 CLR
02:20 25.6 °F 19.2 °F 1009.0 in WNW 5.6 mph 5.6 mph 68 % 0.0 in 0.0 W/m2 CLR
02:25 25.4 °F 19.3 °F 1009.0 in West 11.1 mph 11.1 mph 69 % 0.0 in 0.0 W/m2 CLR
02:30 25.4 °F 19.7 °F 1009.4 in West 18.5 mph 18.5 mph 71 % 0.0 in 0.0 W/m2 CLR
02:35 25.3 °F 19.7 °F 1009.0 in West 9.3 mph 9.3 mph 71 % 0.0 in 0.0 W/m2 CLR
02:40 25.1 °F 19.7 °F 1009.4 in WNW 11.3 mph 11.3 mph 72 % 0.0 in 0.0 W/m2 CLR
02:45 24.9 °F 19.8 °F 1009.4 in Calm     73 % 0.0 in 0.0 W/m2 CLR
02:50 24.8 °F 19.7 °F 1009.4 in West 5.6 mph 5.6 mph 73 % 0.0 in 0.0 W/m2 CLR
02:55 24.6 °F 18.8 °F 1009.4 in WSW 14.5 mph 14.5 mph 70 % 0.0 in 0.0 W/m2 CLR
03:00 24.5 °F 18.4 °F 1009.4 in West 13.0 mph 13.0 mph 69 % 0.0 in 0.0 W/m2 CLR
03:05 24.4 °F 18.1 °F 1009.4 in Calm     68 % 0.0 in 0.0 W/m2 CLR
03:10 24.2 °F 17.7 °F 1009.7 in Calm     67 % 0.0 in 0.0 W/m2 CLR
03:15 24.1 °F 17.3 °F 1009.7 in Calm     66 % 0.0 in 0.0 W/m2 CLR
03:20 23.9 °F 17.2 °F 1009.7 in WNW 11.1 mph 11.1 mph 66 % 0.0 in 0.0 W/m2 CLR
03:25 23.8 °F 17.1 °F 1009.7 in WNW 11.3 mph 11.3 mph 66 % 0.0 in 0.0 W/m2 CLR
03:30 23.6 °F 16.9 °F 1009.7 in Calm     66 % 0.0 in 0.0 W/m2 CLR
03:35 23.5 °F 16.8 °F 1009.4 in Calm     66 % 0.0 in 0.0 W/m2 CLR
03:40 23.3 °F 16.8 °F 1009.4 in Calm     67 % 0.0 in 0.0 W/m2 CLR
03:45 23.2 °F 16.8 °F 1009.4 in Calm     67 % 0.0 in 0.0 W/m2 CLR
03:50 23.1 °F 16.7 °F 1009.4 in Calm     67 % 0.0 in 0.0 W/m2 CLR
03:55 22.9 °F 16.7 °F 1009.4 in Calm     68 % 0.0 in 0.0 W/m2 CLR
04:00 22.8 °F 16.6 °F 1009.4 in Calm     68 % 0.0 in 0.0 W/m2 CLR
04:05 22.7 °F 16.5 °F 1009.0 in Calm     68 % 0.0 in 0.0 W/m2 CLR
04:10 22.6 °F 16.4 °F 1009.4 in Calm     68 % 0.0 in 0.0 W/m2 CLR
04:15 22.6 °F 16.3 °F 1009.4 in Calm     68 % 0.0 in 0.0 W/m2 CLR
04:20 22.4 °F 16.2 °F 1009.4 in Calm     68 % 0.0 in 0.0 W/m2 CLR
04:25 22.4 °F 16.2 °F 1009.4 in Calm     68 % 0.0 in 0.0 W/m2 CLR
04:30 22.4 °F 16.2 °F 1009.4 in Calm     68 % 0.0 in 0.0 W/m2 CLR
04:35 22.3 °F 16.1 °F 1009.4 in Calm     68 % 0.0 in 0.0 W/m2 CLR
04:40 22.3 °F 16.1 °F 1009.4 in Calm     68 % 0.0 in 0.0 W/m2 CLR
04:45 22.2 °F 16.0 °F 1009.4 in Calm     68 % 0.0 in 0.0 W/m2 CLR
04:50 22.1 °F 15.9 °F 1009.7 in Calm     68 % 0.0 in 0.0 W/m2 CLR
04:55 22.1 °F 15.9 °F 1009.7 in Calm     68 % 0.0 in 0.0 W/m2 CLR
05:00 22.0 °F 16.1 °F 1009.7 in Calm     69 % 0.0 in 0.0 W/m2 CLR
05:05 21.9 °F 15.9 °F 1009.7 in Calm     69 % 0.0 in 0.0 W/m2 CLR
05:10 21.8 °F 15.9 °F 1009.7 in Calm     69 % 0.0 in 0.0 W/m2 CLR
05:15 21.8 °F 16.1 °F 1010.0 in Calm     70 % 0.0 in 0.0 W/m2 CLR
05:20 21.7 °F 15.9 °F 1010.0 in Calm     70 % 0.0 in 0.0 W/m2 CLR
05:25 21.6 °F 15.8 °F 1010.0 in Calm     70 % 0.0 in 0.0 W/m2 CLR
05:30 21.6 °F 15.8 °F 1010.0 in Calm     70 % 0.0 in 0.0 W/m2 CLR
05:35 21.4 °F 15.7 °F 1010.0 in Calm     70 % 0.0 in 0.0 W/m2 CLR
05:36 21.4 °F 15.9 °F 1010.0 in Calm     71 % 0.0 in 0.0 W/m2 CLR
05:41 21.4 °F 15.9 °F 1010.0 in Calm     71 % 0.0 in 0.0 W/m2 CLR
05:46 21.4 °F 15.9 °F 1010.0 in Calm     71 % 0.0 in 0.0 W/m2 CLR
05:51 21.3 °F 15.8 °F 1010.0 in Calm     71 % 0.0 in 0.0 W/m2 CLR
05:56 21.2 °F 15.7 °F 1010.0 in Calm     71 % 0.0 in 0.0 W/m2 CLR
06:01 21.1 °F 15.7 °F 1010.4 in Calm     71 % 0.0 in 0.0 W/m2 CLR
06:06 21.0 °F 15.8 °F 1010.4 in Calm     72 % 0.0 in 0.0 W/m2 CLR
06:11 20.9 °F 15.7 °F 1010.4 in Calm     72 % 0.0 in 0.0 W/m2 CLR
06:16 20.9 °F 15.7 °F 1010.4 in Calm     72 % 0.0 in 0.0 W/m2 CLR
06:21 20.9 °F 15.7 °F 1010.4 in Calm     72 % 0.0 in 0.0 W/m2 CLR
06:26 20.8 °F 15.6 °F 1010.4 in Calm     72 % 0.0 in 0.0 W/m2 CLR
06:31 20.6 °F 15.6 °F 1010.7 in Calm     73 % 0.0 in 0.0 W/m2 CLR
06:36 20.6 °F 15.8 °F 1010.7 in Calm     74 % 0.0 in 0.0 W/m2 CLR
06:41 20.5 °F 15.7 °F 1010.7 in Calm     74 % 0.0 in 0.0 W/m2 CLR
06:46 20.5 °F 15.7 °F 1010.7 in Calm     74 % 0.0 in 0.0 W/m2 OVC
06:51 20.6 °F 15.8 °F 1010.7 in Calm     74 % 0.0 in 0.0 W/m2 OVC
06:56 20.6 °F 15.8 °F 1010.7 in West 5.6 mph 5.6 mph 74 % 0.0 in 0.0 W/m2 OVC
07:02 20.7 °F 15.7 °F 1010.7 in Calm     73 % 0.0 in 5.0 W/m2 OVC
07:07 20.7 °F 15.7 °F 1010.7 in Calm     73 % 0.0 in 7.0 W/m2 BKN
07:12 20.7 °F 15.7 °F 1010.7 in Calm     73 % 0.0 in 12.0 W/m2 BKN
07:17 20.7 °F 15.7 °F 1010.7 in Calm     73 % 0.0 in 18.0 W/m2 BKN
07:22 20.6 °F 15.8 °F 1010.7 in Calm     74 % 0.0 in 23.0 W/m2 BKN
07:27 20.6 °F 15.8 °F 1010.7 in Calm     74 % 0.0 in 25.0 W/m2 BKN
07:32 20.6 °F 15.8 °F 1011.1 in Calm     74 % 0.0 in 26.0 W/m2 BKN
07:37 20.6 °F 15.8 °F 1011.1 in Calm     74 % 0.0 in 32.0 W/m2 BKN
07:42 20.6 °F 15.8 °F 1011.1 in Calm     74 % 0.0 in 37.0 W/m2 BKN
07:47 20.6 °F 15.8 °F 1011.1 in Calm     74 % 0.0 in 47.0 W/m2 BKN
07:52 20.4 °F 15.7 °F 1011.1 in Calm     74 % 0.0 in 62.0 W/m2 SCT
07:57 20.4 °F 15.6 °F 1011.1 in Calm     74 % 0.0 in 79.0 W/m2 SCT
08:02 20.4 °F 15.7 °F 1011.1 in Calm     74 % 0.0 in 91.0 W/m2 FEW
08:07 20.6 °F 15.8 °F 1011.1 in Calm     74 % 0.0 in 111.0 W/m2 CLR
08:12 20.8 °F 16.0 °F 1011.1 in Calm     74 % 0.0 in 123.0 W/m2 CLR
08:17 21.1 °F 16.1 °F 1011.4 in NW 8.0 mph 8.0 mph 73 % 0.0 in 139.0 W/m2 CLR
08:22 21.4 °F 15.9 °F 1011.4 in West 6.4 mph 6.4 mph 71 % 0.0 in 155.0 W/m2 CLR
08:27 21.6 °F 15.7 °F 1011.4 in West 18.5 mph 18.5 mph 69 % 0.0 in 178.0 W/m2 CLR
08:32 21.8 °F 15.8 °F 1011.7 in WNW 9.3 mph 9.3 mph 69 % 0.0 in 192.0 W/m2 CLR
08:37 21.9 °F 15.9 °F 1011.4 in WNW 11.1 mph 11.1 mph 69 % 0.0 in 207.0 W/m2 CLR
08:42 22.0 °F 15.8 °F 1011.4 in WNW 16.7 mph 16.7 mph 68 % 0.0 in 223.0 W/m2 CLR
08:47 22.2 °F 15.7 °F 1011.7 in WNW 16.7 mph 16.7 mph 67 % 0.0 in 244.0 W/m2 CLR
08:52 22.3 °F 15.8 °F 1011.7 in NW 13.0 mph 13.0 mph 67 % 0.0 in 220.0 W/m2 CLR
08:57 22.3 °F 15.9 °F 1011.7 in WNW 18.5 mph 18.5 mph 67 % 0.0 in 172.0 W/m2 CLR
09:02 22.4 °F 15.9 °F 1011.7 in NW 13.0 mph 13.0 mph 67 % 0.0 in 237.0 W/m2 CLR
09:07 22.5 °F 15.8 °F 1011.7 in NW 18.5 mph 18.5 mph 66 % 0.0 in 272.0 W/m2 CLR
09:12 22.5 °F 16.1 °F 1011.7 in NW 9.7 mph 9.7 mph 67 % 0.0 in 253.0 W/m2 CLR
09:17 22.7 °F 16.1 °F 1012.1 in NNW 13.0 mph 13.0 mph 66 % 0.0 in 350.0 W/m2 CLR
09:22 23.0 °F 16.3 °F 1012.1 in SSW 5.6 mph 5.6 mph 66 % 0.0 in 396.0 W/m2 CLR
09:27 23.2 °F 16.2 °F 1012.1 in Calm     65 % 0.0 in 345.0 W/m2 CLR
09:32 23.4 °F 16.2 °F 1012.1 in WSW 3.7 mph   64 % 0.0 in 383.0 W/m2 CLR
09:37 23.6 °F 16.4 °F 1012.1 in Calm     64 % 0.0 in 325.0 W/m2 CLR
09:42 23.8 °F 16.4 °F 1012.1 in WSW 9.3 mph 9.3 mph 63 % 0.0 in 512.0 W/m2 CLR
09:47 23.9 °F 16.2 °F 1012.1 in West 7.4 mph 7.4 mph 62 % 0.0 in 410.0 W/m2 CLR
09:52 24.1 °F 16.4 °F 1012.1 in WNW 9.7 mph 9.7 mph 62 % 0.0 in 272.0 W/m2 CLR
09:57 24.2 °F 16.4 °F 1012.1 in SW 7.4 mph 7.4 mph 62 % 0.0 in 448.0 W/m2 CLR
10:02 24.1 °F 16.4 °F 1012.1 in WNW 5.6 mph 5.6 mph 62 % 0.0 in 279.0 W/m2 CLR
10:07 24.1 °F 16.3 °F 1012.4 in West 1.9 mph   62 % 0.0 in 265.0 W/m2 CLR
10:12 24.2 °F 16.4 °F 1012.4 in Calm     62 % 0.0 in 237.0 W/m2 CLR
10:17 24.4 °F 16.4 °F 1012.8 in WSW 7.4 mph 7.4 mph 61 % 0.0 in 561.0 W/m2 CLR
10:22 24.6 °F 16.6 °F 1012.8 in Calm     61 % 0.0 in 548.0 W/m2 CLR
10:27 25.1 °F 16.7 °F 1012.8 in Calm     60 % 0.0 in 548.0 W/m2 CLR
10:32 25.3 °F 16.7 °F 1012.8 in Calm     59 % 0.0 in 490.0 W/m2 CLR
10:37 25.4 °F 16.8 °F 1012.8 in Calm     59 % 0.0 in 526.0 W/m2 CLR
10:42 25.7 °F 16.8 °F 1012.8 in Calm     58 % 0.0 in 149.0 W/m2 CLR
10:47 25.7 °F 16.6 °F 1012.8 in Calm     57 % 0.0 in 128.0 W/m2 CLR
10:52 25.6 °F 16.7 °F 1012.8 in South 1.9 mph 1.9 mph 58 % 0.0 in 172.0 W/m2 CLR
10:57 25.5 °F 16.6 °F 1012.4 in Calm     58 % 0.0 in 325.0 W/m2 CLR
11:02 25.6 °F 16.7 °F 1012.4 in Calm     58 % 0.0 in 332.0 W/m2 CLR
11:07 25.7 °F 16.8 °F 1012.4 in North 5.6 mph 5.6 mph 58 % 0.0 in 329.0 W/m2 CLR
11:12 25.9 °F 16.7 °F 1012.4 in North 3.7 mph 3.7 mph 57 % 0.0 in 401.0 W/m2 CLR
11:13 25.9 °F 16.7 °F 1012.4 in NNE 3.7 mph   57 % 0.0 in 355.0 W/m2 CLR
11:18 25.9 °F 16.8 °F 1012.8 in Calm     57 % 0.0 in 605.0 W/m2 CLR
11:23 25.9 °F 16.8 °F 1012.4 in Calm     57 % 0.0 in 350.0 W/m2 CLR
11:28 25.8 °F 16.7 °F 1012.4 in Calm     57 % 0.0 in 255.0 W/m2 CLR
11:33 25.8 °F 16.6 °F 1012.8 in NW 14.5 mph 14.5 mph 57 % 0.0 in 315.0 W/m2 CLR
11:38 25.7 °F 16.8 °F 1013.1 in NW 7.4 mph 7.4 mph 58 % 0.0 in 432.0 W/m2 CLR
11:43 25.7 °F 16.8 °F 1013.4 in WNW 13.0 mph 13.0 mph 58 % 0.0 in 221.0 W/m2 CLR
11:48 25.4 °F 16.6 °F 1013.1 in NNW 5.6 mph 5.6 mph 58 % 0.0 in 127.0 W/m2 CLR
11:53 25.2 °F 16.6 °F 1013.4 in NW 6.4 mph 6.4 mph 59 % 0.0 in 91.0 W/m2 CLR
11:58 25.1 °F 16.5 °F 1012.8 in NNE 9.3 mph 9.3 mph 59 % 0.0 in 90.0 W/m2 CLR
12:03 25.1 °F 16.5 °F 1013.1 in Calm     59 % 0.0 in 77.0 W/m2 CLR
12:08 25.1 °F 16.5 °F 1013.1 in Calm     59 % 0.0 in 95.0 W/m2 FEW
12:13 25.1 °F 16.5 °F 1012.4 in Calm     59 % 0.0 in 176.0 W/m2 CLR
12:18 25.1 °F 16.6 °F 1012.8 in Calm     59 % 0.0 in 199.0 W/m2 CLR
12:23 25.1 °F 16.5 °F 1013.1 in Calm     59 % 0.0 in 104.0 W/m2 CLR
12:28 24.9 °F 16.4 °F 1012.4 in NNE 13.0 mph 13.0 mph 59 % 0.0 in 258.0 W/m2 CLR
12:33 24.9 °F 16.3 °F 1013.1 in NNW 5.6 mph   59 % 0.0 in 139.0 W/m2 CLR
12:38 24.8 °F 16.6 °F 1012.8 in NNE 5.6 mph   60 % 0.0 in 121.0 W/m2 CLR
12:43 24.8 °F 16.5 °F 1013.1 in Calm     60 % 0.0 in 155.0 W/m2 CLR
12:48 24.8 °F 16.5 °F 1013.1 in West 6.4 mph 6.4 mph 60 % 0.0 in 114.0 W/m2 CLR
12:53 24.8 °F 16.6 °F 1012.8 in Calm     60 % 0.0 in 74.0 W/m2 CLR
12:58 24.8 °F 16.6 °F 1012.4 in North 4.8 mph 4.8 mph 60 % 0.0 in 111.0 W/m2 CLR
13:03 24.7 °F 16.7 °F 1012.4 in Calm     61 % 0.0 in 114.0 W/m2 CLR
13:08 24.7 °F 16.7 °F 1012.4 in NNE 9.3 mph 9.3 mph 61 % 0.0 in 74.0 W/m2 CLR
13:13 24.6 °F 16.6 °F 1011.7 in NNE 11.1 mph 11.1 mph 61 % 0.0 in 135.0 W/m2 CLR
13:18 24.7 °F 16.7 °F 1011.4 in North 16.1 mph 16.1 mph 61 % 0.0 in 243.0 W/m2 CLR
13:23 24.8 °F 16.8 °F 1012.1 in North 18.5 mph 18.5 mph 61 % 0.0 in 132.0 W/m2 CLR
13:24 24.8 °F 16.8 °F 1012.1 in North 18.5 mph 18.5 mph 61 % 0.0 in 123.0 W/m2 CLR
13:29 24.9 °F 16.7 °F 1013.8 in SW 12.9 mph 12.9 mph 60 % 0.0 in 102.0 W/m2 CLR
13:34 24.9 °F 16.7 °F 1012.4 in Calm     60 % 0.0 in 163.0 W/m2 CLR
13:39 25.1 °F 16.8 °F 1012.1 in NE 9.7 mph 9.7 mph 60 % 0.0 in 464.0 W/m2 CLR
13:44 25.5 °F 16.9 °F 1012.4 in North 16.7 mph 16.7 mph 59 % 0.0 in 385.0 W/m2 CLR
13:49 25.6 °F 16.7 °F 1012.1 in NW 11.1 mph 11.1 mph 58 % 0.0 in 246.0 W/m2 CLR
13:54 25.5 °F 16.6 °F 1012.4 in NNW 6.4 mph 6.4 mph 58 % 0.0 in 276.0 W/m2 CLR
13:59 25.6 °F 16.7 °F 1012.8 in Calm     58 % 0.0 in 220.0 W/m2 CLR
14:04 25.5 °F 16.6 °F 1012.8 in NW 7.4 mph 7.4 mph 58 % 0.0 in 113.0 W/m2 CLR
14:09 25.4 °F 16.8 °F 1013.4 in South 7.4 mph 7.4 mph 59 % 0.0 in 74.0 W/m2 CLR
14:14 25.5 °F 16.9 °F 1012.4 in Calm     59 % 0.0 in 197.0 W/m2 CLR
14:19 25.7 °F 16.8 °F 1011.7 in NNE 9.3 mph 9.3 mph 58 % 0.0 in 485.0 W/m2 CLR
14:24 26.1 °F 17.2 °F 1012.4 in NE 8.0 mph 8.0 mph 58 % 0.0 in 504.0 W/m2 CLR
14:29 26.3 °F 17.1 °F 1012.8 in NE 7.4 mph 7.4 mph 57 % 0.0 in 287.0 W/m2 CLR
14:34 26.3 °F 17.1 °F 1012.8 in West 5.6 mph 5.6 mph 57 % 0.0 in 227.0 W/m2 CLR
14:39 26.3 °F 16.8 °F 1012.8 in Calm     56 % 0.0 in 193.0 W/m2 CLR
14:44 26.3 °F 16.8 °F 1013.1 in Calm     56 % 0.0 in 162.0 W/m2 CLR
14:49 26.3 °F 17.1 °F 1013.1 in Calm     57 % 0.0 in 121.0 W/m2 CLR
14:54 26.2 °F 17.0 °F 1013.4 in Calm     57 % 0.0 in 102.0 W/m2 CLR
14:59 26.2 °F 17.1 °F 1013.1 in SE 8.0 mph 8.0 mph 57 % 0.0 in 74.0 W/m2 CLR
15:04 26.1 °F 17.7 °F 1012.8 in ESE 13.0 mph 13.0 mph 60 % 0.0 in 81.0 W/m2 FEW
15:09 25.9 °F 17.6 °F 1013.1 in North 13.0 mph 13.0 mph 60 % 0.0 in 91.0 W/m2 FEW
15:14 25.8 °F 17.2 °F 1013.1 in ENE 3.7 mph 3.7 mph 59 % 0.0 in 104.0 W/m2 CLR
15:19 25.8 °F 17.2 °F 1013.4 in Calm     59 % 0.0 in 137.0 W/m2 CLR
15:24 25.9 °F 17.6 °F 1013.4 in Calm     60 % 0.0 in 100.0 W/m2 CLR
15:29 25.9 °F 17.3 °F 1013.4 in Calm     59 % 0.0 in 67.0 W/m2 CLR
15:34 25.9 °F 17.6 °F 1012.8 in ENE 5.6 mph 5.6 mph 60 % 0.0 in 223.0 W/m2 FEW
15:39 26.1 °F 17.9 °F 1012.4 in ENE 9.3 mph 9.3 mph 61 % 0.0 in 666.0 W/m2 CLR
15:40 26.1 °F 17.7 °F 1012.4 in ENE 9.3 mph 9.3 mph 60 % 0.0 in 443.0 W/m2 CLR
15:45 26.4 °F 18.0 °F 1012.4 in ENE 8.0 mph 8.0 mph 60 % 0.0 in 816.0 W/m2 CLR
15:50 26.9 °F 17.7 °F 1012.1 in NNE 11.1 mph 11.1 mph 57 % 0.0 in 462.0 W/m2 CLR
15:55 27.2 °F 17.6 °F 1012.4 in NNW 14.8 mph 14.8 mph 56 % 0.0 in 301.0 W/m2 CLR
16:00 27.3 °F 17.7 °F 1012.1 in ENE 8.0 mph 8.0 mph 56 % 0.0 in 399.0 W/m2 CLR
16:05 27.5 °F 17.7 °F 1012.1 in NE 1.6 mph 1.6 mph 55 % 0.0 in 366.0 W/m2 CLR
16:10 27.7 °F 17.8 °F 1012.4 in NE 9.3 mph 9.3 mph 55 % 0.0 in 434.0 W/m2 CLR
16:15 28.1 °F 18.2 °F 1012.4 in ENE 9.3 mph 9.3 mph 55 % 0.0 in 348.0 W/m2 CLR
16:20 28.2 °F 18.1 °F 1012.4 in ENE 9.7 mph 9.7 mph 54 % 0.0 in 330.0 W/m2 CLR
16:25 28.2 °F 18.6 °F 1012.4 in East 5.6 mph 5.6 mph 56 % 0.0 in 371.0 W/m2 CLR
16:30 28.0 °F 18.4 °F 1012.4 in ENE 7.4 mph 7.4 mph 56 % 0.0 in 420.0 W/m2 CLR
16:35 28.0 °F 18.1 °F 1012.8 in ENE 7.4 mph 7.4 mph 55 % 0.0 in 471.0 W/m2 CLR
16:40 28.2 °F 17.7 °F 1012.4 in ENE 9.3 mph 9.3 mph 53 % 0.0 in 288.0 W/m2 CLR
16:45 28.3 °F 18.1 °F 1012.8 in NE 3.7 mph   54 % 0.0 in 241.0 W/m2 CLR
16:50 28.1 °F 18.2 °F 1012.4 in ENE 9.3 mph 9.3 mph 55 % 0.0 in 135.0 W/m2 CLR
16:55 27.9 °F 18.0 °F 1012.4 in Calm     55 % 0.0 in 93.0 W/m2 CLR
17:00 27.8 °F 18.2 °F 1012.1 in ENE 11.1 mph 11.1 mph 56 % 0.0 in 90.0 W/m2 CLR
17:05 27.6 °F 18.1 °F 1012.1 in NNE 5.6 mph 5.6 mph 56 % 0.0 in 102.0 W/m2 CLR
17:10 27.6 °F 18.0 °F 1012.4 in NE 3.7 mph 3.7 mph 56 % 0.0 in 132.0 W/m2 CLR
17:15 27.6 °F 18.1 °F 1012.1 in North 8.0 mph 8.0 mph 56 % 0.0 in 192.0 W/m2 CLR
17:19 27.8 °F 18.2 °F 1012.4 in NE 11.1 mph 11.1 mph 56 % 0.0 in 251.0 W/m2 CLR
17:20 27.8 °F 18.2 °F 1012.4 in NE 11.1 mph 11.1 mph 56 % 0.0 in 251.0 W/m2 CLR
17:25 27.8 °F 18.2 °F 1012.4 in NE 11.1 mph 11.1 mph 56 % 0.0 in 251.0 W/m2 CLR
17:30 27.8 °F 18.2 °F 1012.1 in NE 13.0 mph 13.0 mph 56 % 0.0 in 251.0 W/m2 CLR
17:35 28.0 °F 18.1 °F 1011.7 in Calm   0.2 mph 55 % 0.0 in 294.0 W/m2 CLR
17:40 28.1 °F 18.2 °F 1011.7 in Calm     55 % 0.0 in 373.0 W/m2 CLR
17:45 28.4 °F 18.2 °F 1011.4 in Calm     54 % 0.0 in 329.0 W/m2 CLR
17:50 28.7 °F 18.5 °F 1011.4 in Calm     54 % 0.0 in 294.0 W/m2 CLR
17:55 29.0 °F 18.4 °F 1011.4 in Calm     53 % 0.0 in 250.0 W/m2 CLR
18:00 29.2 °F 18.3 °F 1011.1 in Calm     52 % 0.0 in 192.0 W/m2 CLR
18:05 29.2 °F 18.6 °F 1011.1 in Calm     53 % 0.0 in 190.0 W/m2 CLR
18:10 29.3 °F 18.7 °F 1011.1 in Calm     53 % 0.0 in 338.0 W/m2 CLR
18:15 29.7 °F 19.1 °F 1011.1 in Calm     53 % 0.0 in 373.0 W/m2 CLR
18:16 29.7 °F 18.8 °F 1011.1 in Calm     52 % 0.0 in 422.0 W/m2 CLR
18:21 30.0 °F 19.4 °F 1011.1 in Calm   0.2 mph 53 % 0.0 in 357.0 W/m2 CLR
18:26 30.1 °F 19.8 °F 1010.7 in East 8.0 mph 8.0 mph 54 % 0.0 in 339.0 W/m2 CLR
18:31 30.1 °F 19.8 °F 1011.1 in East 5.6 mph 5.6 mph 54 % 0.0 in 221.0 W/m2 CLR
18:36 30.1 °F 19.7 °F 1010.7 in ENE 5.6 mph   54 % 0.0 in 341.0 W/m2 CLR
18:41 30.2 °F 19.6 °F 1011.1 in Calm     53 % 0.0 in 471.0 W/m2 CLR
18:46 30.6 °F 19.6 °F 1011.1 in Calm     52 % 0.0 in 346.0 W/m2 CLR
18:51 31.0 °F 19.1 °F 1011.1 in Calm     49 % 0.0 in 452.0 W/m2 CLR
18:56 31.3 °F 18.9 °F 1011.1 in Calm     48 % 0.0 in 394.0 W/m2 CLR
19:01 31.4 °F 18.8 °F 1011.1 in Calm     47 % 0.0 in 334.0 W/m2 CLR
19:06 31.6 °F 18.6 °F 1011.1 in Calm   0.6 mph 46 % 0.0 in 151.0 W/m2 CLR
19:11 31.6 °F 18.9 °F 1011.1 in Calm   0.2 mph 47 % 0.0 in 128.0 W/m2 CLR
19:16 31.5 °F 20.1 °F 1011.1 in ESE 9.3 mph 9.3 mph 51 % 0.0 in 311.0 W/m2 CLR
19:21 31.4 °F 20.7 °F 1010.7 in ESE 8.0 mph 8.0 mph 53 % 0.0 in 278.0 W/m2 CLR
19:26 30.9 °F 21.2 °F 1010.7 in ESE 16.7 mph 16.7 mph 56 % 0.0 in 165.0 W/m2 CLR
19:31 30.7 °F 21.2 °F 1010.7 in ESE 11.3 mph 11.3 mph 57 % 0.0 in 248.0 W/m2 CLR
19:36 30.8 °F 21.0 °F 1010.7 in SE 13.0 mph 13.0 mph 56 % 0.0 in 279.0 W/m2 CLR
19:41 30.9 °F 20.8 °F 1010.7 in ESE 18.5 mph 18.5 mph 55 % 0.0 in 243.0 W/m2 CLR
19:46 31.0 °F 21.2 °F 1011.1 in SSE 18.5 mph 18.5 mph 56 % 0.0 in 211.0 W/m2 CLR
19:51 31.1 °F 20.7 °F 1011.1 in SSE 16.7 mph 16.7 mph 54 % 0.0 in 197.0 W/m2 CLR
19:56 31.3 °F 20.3 °F 1011.1 in SE 18.5 mph 18.5 mph 52 % 0.0 in 188.0 W/m2 CLR
20:01 31.6 °F 19.6 °F 1011.1 in SSE 5.6 mph 6.1 mph 49 % 0.0 in 155.0 W/m2 CLR
20:06 32.0 °F 19.3 °F 1011.1 in SSE 13.0 mph 13.0 mph 47 % 0.0 in 142.0 W/m2 CLR
20:11 32.4 °F 17.1 °F 1011.1 in SSE 24.1 mph 24.1 mph 40 % 0.0 in 113.0 W/m2 CLR
20:16 32.7 °F 16.1 °F 1011.1 in SSE 20.9 mph 20.9 mph 37 % 0.0 in 91.0 W/m2 CLR
20:22 32.8 °F 16.2 °F 1011.1 in South 27.8 mph 27.8 mph 37 % 0.0 in 77.0 W/m2 FEW
20:27 32.6 °F 16.4 °F 1011.4 in South 27.8 mph 27.8 mph 38 % 0.0 in 67.0 W/m2 FEW
20:32 32.3 °F 16.6 °F 1011.4 in South 22.2 mph 22.2 mph 39 % 0.0 in 58.0 W/m2 SCT
20:37 32.0 °F 16.7 °F 1011.7 in South 18.5 mph 18.5 mph 40 % 0.0 in 49.0 W/m2 SCT
20:42 31.8 °F 16.9 °F 1011.7 in South 25.9 mph 25.9 mph 41 % 0.0 in 42.0 W/m2 BKN
20:47 31.6 °F 16.7 °F 1011.7 in South 20.4 mph 20.4 mph 41 % 0.0 in 33.0 W/m2 BKN
20:52 31.3 °F 16.9 °F 1011.7 in South 11.1 mph 11.1 mph 42 % 0.0 in 26.0 W/m2 BKN
20:57 31.1 °F 17.0 °F 1012.1 in South 13.0 mph 13.0 mph 43 % 0.0 in 21.0 W/m2 BKN
21:02 30.8 °F 17.2 °F 1012.1 in SE 11.1 mph 11.1 mph 44 % 0.0 in 18.0 W/m2 BKN
21:07 30.6 °F 17.3 °F 1012.1 in South 5.6 mph 5.6 mph 45 % 0.0 in 12.0 W/m2 BKN
21:12 30.4 °F 17.5 °F 1012.4 in SSW 5.6 mph 5.6 mph 46 % 0.0 in 5.0 W/m2 BKN
21:17 30.3 °F 17.4 °F 1012.8 in Calm     46 % 0.0 in 0.0 W/m2 OVC
21:20 30.2 °F 17.3 °F 1012.8 in Calm   0.3 mph 46 % 0.0 in 0.0 W/m2 OVC
21:22 30.1 °F 17.2 °F 1012.8 in Calm     46 % 0.0 in 0.0 W/m2 OVC
21:27 30.0 °F 17.4 °F 1012.8 in Calm     47 % 0.0 in 0.0 W/m2 CLR
21:32 29.8 °F 16.9 °F 1013.1 in South 6.4 mph 6.4 mph 46 % 0.0 in 0.0 W/m2 CLR
21:37 29.7 °F 16.9 °F 1013.4 in SE 5.6 mph 5.6 mph 46 % 0.0 in 0.0 W/m2 CLR
21:42 29.6 °F 16.8 °F 1013.4 in Calm     46 % 0.0 in 0.0 W/m2 CLR
21:47 29.6 °F 16.7 °F 1013.4 in SSW 8.0 mph 8.0 mph 46 % 0.0 in 0.0 W/m2 CLR
21:52 29.6 °F 16.4 °F 1013.4 in Calm     45 % 0.0 in 0.0 W/m2 CLR
21:57 29.5 °F 16.3 °F 1013.4 in South 11.1 mph 11.1 mph 45 % 0.0 in 0.0 W/m2 CLR
22:02 29.4 °F 16.2 °F 1013.8 in South 13.0 mph 13.0 mph 45 % 0.0 in 0.0 W/m2 CLR
22:07 29.3 °F 16.4 °F 1013.8 in Calm     46 % 0.0 in 0.0 W/m2 CLR
22:09 29.2 °F 16.4 °F 1013.8 in South 9.3 mph 9.3 mph 46 % 0.0 in 0.0 W/m2 CLR
22:10 29.2 °F 16.4 °F 1013.8 in South 9.3 mph 9.3 mph 46 % 0.0 in 0.0 W/m2 CLR
22:15 29.1 °F 16.3 °F 1013.8 in Calm     46 % 0.0 in 0.0 W/m2 CLR
22:18 29.1 °F 16.6 °F 1013.8 in South 13.0 mph 13.0 mph 47 % 0.0 in 0.0 W/m2 CLR
22:20 29.1 °F 16.6 °F 1014.1 in South 16.7 mph 16.7 mph 47 % 0.0 in 0.0 W/m2 CLR
22:25 29.1 °F 16.6 °F 1014.1 in South 25.7 mph 25.7 mph 47 % 0.0 in 0.0 W/m2 CLR
22:30 29.1 °F 16.9 °F 1014.1 in SSW 24.1 mph 24.1 mph 48 % 0.0 in 0.0 W/m2 CLR
22:35 29.1 °F 17.0 °F 1014.4 in SSW 14.8 mph 14.8 mph 48 % 0.0 in 0.0 W/m2 CLR
22:40 29.1 °F 16.9 °F 1014.4 in SSW 18.5 mph 18.5 mph 48 % 0.0 in 0.0 W/m2 CLR
22:45 29.0 °F 16.9 °F 1014.4 in South 16.7 mph 16.7 mph 48 % 0.0 in 0.0 W/m2 CLR
22:50 29.0 °F 16.6 °F 1014.4 in SSW 8.0 mph 8.0 mph 47 % 0.0 in 0.0 W/m2 CLR
22:55 29.0 °F 16.6 °F 1014.4 in South 16.7 mph 16.7 mph 47 % 0.0 in 0.0 W/m2 CLR
23:00 29.0 °F 16.2 °F 1014.4 in South 4.8 mph 4.8 mph 46 % 0.0 in 0.0 W/m2 CLR
23:05 29.1 °F 15.9 °F 1014.4 in Calm     45 % 0.0 in 0.0 W/m2 CLR
23:10 29.1 °F 15.9 °F 1014.8 in Calm     45 % 0.0 in 0.0 W/m2 CLR
23:15 29.0 °F 16.2 °F 1014.8 in Calm     46 % 0.0 in 0.0 W/m2 CLR
23:20 28.8 °F 16.1 °F 1015.1 in Calm     46 % 0.0 in 0.0 W/m2 CLR
23:25 28.4 °F 16.4 °F 1015.1 in Calm     48 % 0.0 in 0.0 W/m2 CLR
23:30 27.9 °F 16.9 °F 1015.1 in Calm     51 % 0.0 in 0.0 W/m2 CLR
23:35 27.4 °F 17.0 °F 1015.1 in Calm     53 % 0.0 in 0.0 W/m2 CLR
23:40 27.2 °F 16.8 °F 1015.1 in ESE 5.6 mph 5.6 mph 53 % 0.0 in 0.0 W/m2 CLR
23:45 27.1 °F 17.0 °F 1015.5 in Calm     54 % 0.0 in 0.0 W/m2 CLR
23:50 27.0 °F 16.6 °F 1015.5 in South 5.6 mph 5.6 mph 53 % 0.0 in 0.0 W/m2 CLR
23:55 27.4 °F 15.8 °F 1015.5 in SSE 16.7 mph 16.7 mph 49 % 0.0 in 0.0 W/m2 CLR
Lo Temps de Massalio
Compliments of Weather Underground - 1.25 mb